createdAt,value
2019-05-13T00:00:15.038Z,1.10
2019-05-13T00:03:25.834Z,0.67
2019-05-13T00:06:06.054Z,0.80
2019-05-13T00:09:05.244Z,0.80
2019-05-13T00:12:20.359Z,0.77
2019-05-13T00:15:45.205Z,0.80
2019-05-13T00:18:54.349Z,0.97
2019-05-13T00:22:13.885Z,0.90
2019-05-13T00:25:19.740Z,1.13
2019-05-13T00:28:23.130Z,0.70
2019-05-13T00:31:18.378Z,0.90
2019-05-13T00:34:29.035Z,0.87
2019-05-13T00:37:44.298Z,0.80
2019-05-13T00:40:40.011Z,1.10
2019-05-13T00:43:46.458Z,0.93
2019-05-13T00:46:49.969Z,1.10
2019-05-13T00:49:39.953Z,0.70
2019-05-13T00:52:44.741Z,0.80
2019-05-13T00:56:05.855Z,0.80
2019-05-13T00:59:04.493Z,0.80
2019-05-13T01:02:03.498Z,0.87
2019-05-13T01:04:57.255Z,0.90
2019-05-13T01:08:05.520Z,0.90
2019-05-13T01:11:10.667Z,0.87
2019-05-13T01:14:09.398Z,0.60
2019-05-13T01:17:08.585Z,0.80
2019-05-13T01:20:05.259Z,1.00
2019-05-13T01:23:03.557Z,1.00
2019-05-13T01:26:08.764Z,0.70
2019-05-13T01:29:19.327Z,1.07
2019-05-13T01:32:38.242Z,1.00
2019-05-13T01:35:44.907Z,0.90
2019-05-13T01:38:44.018Z,0.80
2019-05-13T01:41:54.037Z,0.80
2019-05-13T01:44:59.450Z,1.00
2019-05-13T01:47:54.404Z,0.80
2019-05-13T01:50:47.778Z,0.70
2019-05-13T01:53:44.062Z,0.90
2019-05-13T01:56:55.844Z,0.80
2019-05-13T01:59:51.044Z,0.90
2019-05-13T02:03:04.035Z,1.00
2019-05-13T02:06:19.387Z,0.80
2019-05-13T02:08:54.707Z,1.00
2019-05-13T02:12:13.387Z,1.07
2019-05-13T02:15:23.619Z,0.70
2019-05-13T02:18:17.598Z,0.90
2019-05-13T02:21:23.951Z,0.80
2019-05-13T02:23:56.907Z,1.00
2019-05-13T02:26:58.311Z,0.80
2019-05-13T02:30:10.344Z,0.83
2019-05-13T02:33:17.946Z,1.23
2019-05-13T02:36:29.053Z,0.87
2019-05-13T02:39:02.229Z,0.87
2019-05-13T02:42:22.858Z,1.00
2019-05-13T02:45:29.196Z,1.07
2019-05-13T02:47:57.544Z,1.00
2019-05-13T02:50:57.897Z,0.93
2019-05-13T02:54:03.412Z,1.00
2019-05-13T02:57:06.267Z,1.20
2019-05-13T03:00:07.152Z,0.70
2019-05-13T03:03:13.192Z,0.83
2019-05-13T03:06:17.960Z,1.00
2019-05-13T03:09:38.378Z,0.93
2019-05-13T03:12:42.329Z,0.97
2019-05-13T03:22:15.499Z,1.50
2019-05-13T03:35:55.026Z,1.00
2019-05-13T03:42:58.006Z,1.17
2019-05-13T03:49:42.392Z,1.30
2019-05-13T03:56:26.070Z,1.00
2019-05-13T04:02:53.467Z,1.10
2019-05-13T04:06:32.801Z,1.07
2019-05-13T04:13:37.266Z,1.13
2019-05-13T04:16:52.870Z,1.10
2019-05-13T04:19:52.784Z,1.20
2019-05-13T04:22:48.635Z,1.23
2019-05-13T04:25:53.565Z,0.90
2019-05-13T04:29:06.305Z,1.20
2019-05-13T04:32:18.396Z,1.50
2019-05-13T04:35:27.378Z,1.10
2019-05-13T04:38:22.681Z,1.43
2019-05-13T04:41:35.829Z,1.30
2019-05-13T04:44:53.744Z,1.57
2019-05-13T04:47:47.094Z,1.70
2019-05-13T04:50:46.692Z,1.10
2019-05-13T04:53:55.998Z,1.40
2019-05-13T04:56:33.015Z,1.50
2019-05-13T04:59:04.929Z,1.23
2019-05-13T05:02:06.138Z,1.30
2019-05-13T05:04:57.083Z,1.40
2019-05-13T05:08:33.202Z,1.30
2019-05-13T05:12:06.867Z,1.00
2019-05-13T05:15:07.268Z,1.00
2019-05-13T05:18:36.209Z,1.10
2019-05-13T05:21:36.608Z,1.00
2019-05-13T05:24:53.152Z,1.10
2019-05-13T05:28:04.985Z,1.00
2019-05-13T05:31:28.067Z,1.00
2019-05-13T05:34:41.815Z,1.40
2019-05-13T05:37:56.226Z,1.37
2019-05-13T05:41:13.111Z,1.40
2019-05-13T05:44:14.338Z,1.17
2019-05-13T05:46:51.612Z,1.37
2019-05-13T05:50:02.856Z,1.40
2019-05-13T05:52:44.858Z,1.10
2019-05-13T05:55:17.738Z,1.20
2019-05-13T05:58:05.096Z,1.47
2019-05-13T06:01:07.299Z,1.50
2019-05-13T06:03:46.984Z,1.20
2019-05-13T06:06:41.386Z,1.63
2019-05-13T06:09:47.065Z,1.63
2019-05-13T06:12:57.775Z,1.50
2019-05-13T06:16:35.318Z,1.30
2019-05-13T06:19:41.769Z,1.40
2019-05-13T06:22:16.907Z,1.30
2019-05-13T06:25:43.682Z,1.67
2019-05-13T06:28:36.829Z,1.43
2019-05-13T06:31:43.681Z,1.47
2019-05-13T06:34:41.389Z,1.10
2019-05-13T06:37:16.023Z,1.70
2019-05-13T06:40:08.347Z,1.30
2019-05-13T06:43:12.042Z,1.40
2019-05-13T06:45:55.209Z,1.60
2019-05-13T06:48:53.547Z,1.40
2019-05-13T06:52:15.016Z,1.17
2019-05-13T06:55:16.502Z,1.43
2019-05-13T06:58:11.334Z,1.40
2019-05-13T07:01:12.992Z,1.47
2019-05-13T07:04:08.275Z,1.30
2019-05-13T07:07:21.684Z,1.20
2019-05-13T07:10:21.487Z,1.50
2019-05-13T07:13:16.338Z,1.53
2019-05-13T07:16:35.780Z,1.70
2019-05-13T07:19:48.725Z,1.57
2019-05-13T07:22:52.963Z,1.43
2019-05-13T07:26:05.358Z,1.20
2019-05-13T07:28:55.564Z,1.47
2019-05-13T07:32:07.735Z,1.47
2019-05-13T07:35:14.120Z,1.40
2019-05-13T07:38:02.072Z,1.43
2019-05-13T07:41:04.459Z,1.60
2019-05-13T07:44:05.653Z,1.80
2019-05-13T07:47:41.644Z,1.23
2019-05-13T07:51:04.010Z,1.37
2019-05-13T07:54:11.750Z,1.80
2019-05-13T07:57:32.062Z,1.57
2019-05-13T08:00:32.504Z,1.43
2019-05-13T08:03:31.536Z,1.40
2019-05-13T08:06:52.203Z,1.60
2019-05-13T08:09:32.319Z,1.50
2019-05-13T08:12:31.724Z,1.20
2019-05-13T08:15:35.660Z,1.60
2019-05-13T08:18:26.418Z,1.30
2019-05-13T08:21:18.408Z,1.50
2019-05-13T08:24:26.642Z,1.40
2019-05-13T08:27:24.012Z,1.57
2019-05-13T08:30:18.842Z,1.43
2019-05-13T08:33:32.115Z,1.33
2019-05-13T08:36:32.632Z,1.40
2019-05-13T08:39:41.360Z,1.17
2019-05-13T08:42:32.420Z,1.60
2019-05-13T08:45:46.618Z,1.20
2019-05-13T08:48:42.985Z,1.00
2019-05-13T08:51:36.481Z,1.10
2019-05-13T08:54:28.475Z,1.30
2019-05-13T08:57:22.057Z,1.60
2019-05-13T09:00:21.499Z,1.50
2019-05-13T09:03:12.126Z,1.50
2019-05-13T09:06:15.467Z,1.30
2019-05-13T09:09:35.153Z,1.17
2019-05-13T09:12:31.509Z,1.50
2019-05-13T09:15:22.308Z,1.20
2019-05-13T09:18:32.137Z,1.60
2019-05-13T09:21:24.186Z,1.40
2019-05-13T09:24:47.997Z,1.50
2019-05-13T09:28:13.480Z,1.10
2019-05-13T09:31:22.531Z,1.20
2019-05-13T09:34:43.999Z,1.40
2019-05-13T09:38:03.117Z,1.40
2019-05-13T09:41:12.446Z,0.90
2019-05-13T09:44:38.627Z,1.40
2019-05-13T09:47:52.419Z,1.30
2019-05-13T09:51:14.584Z,1.33
2019-05-13T09:54:24.986Z,1.10
2019-05-13T09:57:28.077Z,1.00
2019-05-13T10:00:43.396Z,1.20
2019-05-13T10:03:58.257Z,0.80
2019-05-13T10:10:55.606Z,1.10
2019-05-13T10:14:01.967Z,1.20
2019-05-13T10:17:21.934Z,1.10
2019-05-13T10:20:25.448Z,1.20
2019-05-13T10:23:46.542Z,1.70
2019-05-13T10:26:42.615Z,1.10
2019-05-13T10:29:51.811Z,1.00
2019-05-13T10:33:15.184Z,1.00
2019-05-13T10:36:31.937Z,1.30
2019-05-13T10:39:32.813Z,1.47
2019-05-13T10:42:52.206Z,1.50
2019-05-13T10:45:41.668Z,1.00
2019-05-13T10:48:55.546Z,1.10
2019-05-13T10:52:02.989Z,1.10
2019-05-13T10:55:17.894Z,1.47
2019-05-13T10:58:24.459Z,1.20
2019-05-13T11:05:02.964Z,1.03
2019-05-13T11:08:17.395Z,1.20
2019-05-13T11:11:34.721Z,1.00
2019-05-13T11:14:56.643Z,1.07
2019-05-13T11:18:03.795Z,1.03
2019-05-13T11:21:31.608Z,1.10
2019-05-13T11:24:43.204Z,1.27
2019-05-13T11:27:57.918Z,0.90
2019-05-13T11:31:02.912Z,1.20
2019-05-13T11:34:12.538Z,1.00
2019-05-13T11:37:36.178Z,1.10
2019-05-13T11:41:02.972Z,1.10
2019-05-13T11:44:35.087Z,1.03
2019-05-13T11:47:52.195Z,0.90
2019-05-13T11:51:07.275Z,1.07
2019-05-13T11:54:42.244Z,0.87
2019-05-13T11:57:52.440Z,0.93
2019-05-13T12:00:55.383Z,1.20
2019-05-13T12:04:27.567Z,1.00
2019-05-13T12:07:32.796Z,1.10
2019-05-13T12:10:46.146Z,0.93
2019-05-13T12:14:01.872Z,0.87
2019-05-13T12:17:03.039Z,1.30
2019-05-13T12:20:32.827Z,0.80
2019-05-13T12:23:46.467Z,1.00
2019-05-13T12:30:35.746Z,1.00
2019-05-13T12:36:57.181Z,1.10
2019-05-13T12:43:42.639Z,0.80
2019-05-13T12:46:54.599Z,0.93
2019-05-13T12:50:03.900Z,1.30
2019-05-13T12:52:44.764Z,1.07
2019-05-13T12:55:56.770Z,0.90
2019-05-13T12:58:52.452Z,0.90
2019-05-13T13:01:52.639Z,0.90
2019-05-13T13:05:10.826Z,0.90
2019-05-13T13:08:24.495Z,1.00
2019-05-13T13:11:09.819Z,0.80
2019-05-13T13:13:59.689Z,0.73
2019-05-13T13:17:04.158Z,1.00
2019-05-13T13:19:34.179Z,1.00
2019-05-13T13:22:40.744Z,1.23
2019-05-13T13:25:51.688Z,0.93
2019-05-13T13:28:44.346Z,0.80
2019-05-13T13:31:49.210Z,1.00
2019-05-13T13:34:58.474Z,1.00
2019-05-13T13:37:28.211Z,0.90
2019-05-13T13:40:53.420Z,0.83
2019-05-13T13:43:38.170Z,0.97
2019-05-13T13:46:42.200Z,0.80
2019-05-13T13:49:04.276Z,0.60
2019-05-13T13:52:16.108Z,0.93
2019-05-13T13:55:04.511Z,0.80
2019-05-13T13:58:13.893Z,0.70
2019-05-13T14:01:26.027Z,0.90
2019-05-13T14:04:20.297Z,0.80
2019-05-13T14:07:42.331Z,1.00
2019-05-13T14:14:23.132Z,0.77
2019-05-13T14:17:52.086Z,0.90
2019-05-13T14:21:08.884Z,0.70
2019-05-13T14:24:12.839Z,1.00
2019-05-13T14:27:27.182Z,1.00
2019-05-13T14:30:53.946Z,0.90
2019-05-13T14:33:53.860Z,0.67
2019-05-13T14:37:26.249Z,0.80
2019-05-13T14:40:25.590Z,1.03
2019-05-13T14:43:16.907Z,0.80
2019-05-13T14:46:14.874Z,0.77
2019-05-13T14:49:16.905Z,1.20
2019-05-13T14:52:03.024Z,0.83
2019-05-13T14:54:34.791Z,1.10
2019-05-13T14:57:23.307Z,1.10
2019-05-13T15:00:29.035Z,1.13
2019-05-13T15:03:26.576Z,0.80
2019-05-13T15:06:01.415Z,1.00
2019-05-13T15:08:52.342Z,1.10
2019-05-13T15:11:41.900Z,0.87
2019-05-13T15:14:18.851Z,0.83
2019-05-13T15:17:12.638Z,0.93
2019-05-13T15:19:55.406Z,1.03
2019-05-13T15:22:36.920Z,1.40
2019-05-13T15:25:23.102Z,1.67
2019-05-13T15:28:02.925Z,1.63
2019-05-13T15:30:36.003Z,1.13
2019-05-13T15:33:42.871Z,0.83
2019-05-13T15:37:05.833Z,0.80
2019-05-13T15:40:07.400Z,0.73
2019-05-13T15:43:36.096Z,0.83
2019-05-13T15:46:31.796Z,0.93
2019-05-13T15:49:40.204Z,0.93
2019-05-13T15:52:44.697Z,1.10
2019-05-13T15:55:46.478Z,0.90
2019-05-13T15:58:47.849Z,0.80
2019-05-13T16:02:04.167Z,1.20
2019-05-13T16:05:17.693Z,1.00
2019-05-13T16:08:31.854Z,1.27
2019-05-13T16:11:33.096Z,1.00
2019-05-13T16:14:06.170Z,1.47
2019-05-13T16:17:05.946Z,2.20
2019-05-13T16:19:39.011Z,1.20
2019-05-13T16:22:41.391Z,0.93
2019-05-13T16:25:26.977Z,1.00
2019-05-13T16:28:05.485Z,1.20
2019-05-13T16:30:47.331Z,1.10
2019-05-13T16:33:24.472Z,1.20
2019-05-13T16:36:14.966Z,1.60
2019-05-13T16:39:18.123Z,1.80
2019-05-13T16:42:31.693Z,2.30
2019-05-13T16:45:16.436Z,1.10
2019-05-13T16:48:32.097Z,1.20
2019-05-13T16:51:34.226Z,1.20
2019-05-13T16:54:24.560Z,0.70
2019-05-13T16:57:01.194Z,0.90
2019-05-13T17:00:02.482Z,1.10
2019-05-13T17:03:02.281Z,1.20
2019-05-13T17:06:12.684Z,0.97
2019-05-13T17:08:51.620Z,1.00
2019-05-13T17:11:52.371Z,0.93
2019-05-13T17:14:41.625Z,1.17
2019-05-13T17:17:32.806Z,1.17
2019-05-13T17:20:21.641Z,1.20
2019-05-13T17:23:22.412Z,1.30
2019-05-13T17:26:32.621Z,1.00
2019-05-13T17:29:01.622Z,1.10
2019-05-13T17:32:17.310Z,0.80
2019-05-13T17:35:05.062Z,0.93
2019-05-13T17:37:57.569Z,0.90
2019-05-13T17:40:54.541Z,1.00
2019-05-13T17:44:02.979Z,0.90
2019-05-13T17:46:57.186Z,0.80
2019-05-13T17:50:00.879Z,1.40
2019-05-13T17:53:08.258Z,1.10
2019-05-13T17:56:14.783Z,1.20
2019-05-13T17:59:31.360Z,1.30
2019-05-13T18:02:42.035Z,1.40
2019-05-13T18:06:11.327Z,1.40
2019-05-13T18:09:01.237Z,1.20
2019-05-13T18:12:02.422Z,1.10
2019-05-13T18:14:43.405Z,1.03
2019-05-13T18:17:35.260Z,1.00
2019-05-13T18:20:18.765Z,0.93
2019-05-13T18:23:12.114Z,0.80
2019-05-13T18:26:02.907Z,1.10
2019-05-13T18:28:42.000Z,1.10
2019-05-13T18:31:27.791Z,1.43
2019-05-13T18:34:05.136Z,1.30
2019-05-13T18:36:57.375Z,1.13
2019-05-13T18:39:41.823Z,1.00
2019-05-13T18:42:34.890Z,1.10
2019-05-13T18:45:17.558Z,1.20
2019-05-13T18:48:12.286Z,1.00
2019-05-13T18:50:52.272Z,0.80
2019-05-13T18:53:53.106Z,0.80
2019-05-13T18:56:26.002Z,1.00
2019-05-13T18:59:18.605Z,1.10
2019-05-13T19:02:13.304Z,1.07
2019-05-13T19:05:14.611Z,0.90
2019-05-13T19:08:02.340Z,0.90
2019-05-13T19:10:32.449Z,1.00
2019-05-13T19:13:04.791Z,0.80
2019-05-13T19:16:07.727Z,0.90
2019-05-13T19:19:31.856Z,1.03
2019-05-13T19:22:18.622Z,0.97
2019-05-13T19:25:16.835Z,0.80
2019-05-13T19:28:33.477Z,1.23
2019-05-13T19:31:27.693Z,0.87
2019-05-13T19:34:09.134Z,1.13
2019-05-13T19:37:26.969Z,1.80
2019-05-13T19:40:27.309Z,1.90
2019-05-13T19:43:31.436Z,1.47
2019-05-13T19:46:35.367Z,1.60
2019-05-13T19:49:41.671Z,1.50
2019-05-13T19:52:35.754Z,1.40
2019-05-13T19:55:25.153Z,1.30
2019-05-13T19:58:17.237Z,1.63
2019-05-13T20:01:27.049Z,1.73
2019-05-13T20:04:35.869Z,1.63
2019-05-13T20:07:26.200Z,2.00
2019-05-13T20:10:17.337Z,1.80
2019-05-13T20:13:23.677Z,1.70
2019-05-13T20:16:43.344Z,1.90
2019-05-13T20:19:45.717Z,1.60
2019-05-13T20:22:27.984Z,1.10
2019-05-13T20:25:21.793Z,1.30
2019-05-13T20:28:28.407Z,1.10
2019-05-13T20:31:26.232Z,1.50
2019-05-13T20:34:34.889Z,1.20
2019-05-13T20:37:57.502Z,1.43
2019-05-13T20:41:12.624Z,1.30
2019-05-13T20:44:28.425Z,1.57
2019-05-13T20:47:27.624Z,1.20
2019-05-13T20:50:03.126Z,1.00
2019-05-13T20:52:37.685Z,1.03
2019-05-13T20:55:10.383Z,1.17
2019-05-13T20:58:21.283Z,1.30
2019-05-13T21:01:52.056Z,1.50
2019-05-13T21:08:12.517Z,1.10
2019-05-13T21:10:46.315Z,1.00
2019-05-13T21:13:28.897Z,0.80
2019-05-13T21:16:11.528Z,1.20
2019-05-13T21:18:53.500Z,0.83
2019-05-13T21:21:41.533Z,1.00
2019-05-13T21:24:16.113Z,1.10
2019-05-13T21:26:55.453Z,1.37
2019-05-13T21:29:36.104Z,1.10
2019-05-13T21:32:13.642Z,1.73
2019-05-13T21:34:56.087Z,1.30
2019-05-13T21:37:32.661Z,1.10
2019-05-13T21:40:06.477Z,1.13
2019-05-13T21:42:45.502Z,1.50
2019-05-13T21:45:23.789Z,1.13
2019-05-13T21:48:06.904Z,1.50
2019-05-13T21:50:48.821Z,1.37
2019-05-13T21:53:36.096Z,1.40
2019-05-13T21:56:17.364Z,1.50
2019-05-13T21:58:57.351Z,1.50
2019-05-13T22:01:45.285Z,1.40
2019-05-13T22:04:21.752Z,1.80
2019-05-13T22:06:55.176Z,1.57
2019-05-13T22:09:26.323Z,1.87
2019-05-13T22:12:03.661Z,1.40
2019-05-13T22:14:51.558Z,1.20
2019-05-13T22:17:31.769Z,1.40
2019-05-13T22:20:04.984Z,1.50
2019-05-13T22:22:46.316Z,1.40
2019-05-13T22:25:22.393Z,1.10
2019-05-13T22:28:01.735Z,1.43
2019-05-13T22:30:44.562Z,1.20
2019-05-13T22:33:28.662Z,1.30
2019-05-13T22:36:04.698Z,2.00
2019-05-13T22:38:48.488Z,1.60
2019-05-13T22:41:22.233Z,1.40
2019-05-13T22:44:03.696Z,1.27
2019-05-13T22:46:46.910Z,1.33
2019-05-13T22:49:25.605Z,1.40
2019-05-13T22:52:11.419Z,1.50
2019-05-13T22:54:52.901Z,1.50
2019-05-13T22:57:41.752Z,1.47
2019-05-13T23:00:22.795Z,1.50
2019-05-13T23:03:05.331Z,1.20
2019-05-13T23:05:52.554Z,1.50
2019-05-13T23:08:43.980Z,1.30
2019-05-13T23:11:41.727Z,1.10
2019-05-13T23:14:10.938Z,1.23
2019-05-13T23:17:09.292Z,1.13
2019-05-13T23:19:47.020Z,1.30
2019-05-13T23:22:42.003Z,1.30
2019-05-13T23:25:43.197Z,1.27
2019-05-13T23:28:44.985Z,1.50
2019-05-13T23:31:58.562Z,1.60
2019-05-13T23:35:03.333Z,1.23
2019-05-13T23:38:21.440Z,1.30
2019-05-13T23:41:11.530Z,1.80
2019-05-13T23:44:27.182Z,1.40
2019-05-13T23:47:02.975Z,1.30
2019-05-13T23:50:24.954Z,1.70
2019-05-13T23:53:33.313Z,1.20
2019-05-13T23:56:43.049Z,1.40
2019-05-13T23:59:55.681Z,1.70
